createdAt,value
2019-03-28T00:02:01.616Z,30.30
2019-03-28T00:04:33.750Z,26.33
2019-03-28T00:07:05.711Z,28.00
2019-03-28T00:09:37.582Z,30.03
2019-03-28T00:12:09.525Z,27.90
2019-03-28T00:14:41.327Z,24.60
2019-03-28T00:17:13.129Z,30.93
2019-03-28T00:19:44.970Z,37.37
2019-03-28T00:22:27.308Z,37.07
2019-03-28T00:25:03.757Z,31.77
2019-03-28T00:27:35.673Z,30.73
2019-03-28T00:30:08.132Z,28.70
2019-03-28T00:32:39.929Z,30.17
2019-03-28T00:35:12.859Z,27.17
2019-03-28T00:37:44.733Z,24.50
2019-03-28T00:40:16.773Z,31.00
2019-03-28T00:42:48.586Z,30.00
2019-03-28T00:45:20.477Z,30.33
2019-03-28T00:47:52.457Z,32.33
2019-03-28T00:50:24.257Z,31.83
2019-03-28T00:52:56.133Z,32.93
2019-03-28T00:55:28.123Z,31.73
2019-03-28T00:57:59.899Z,32.13
2019-03-28T01:00:31.891Z,31.83
2019-03-28T01:03:03.826Z,31.73
2019-03-28T01:05:35.865Z,33.13
2019-03-28T01:08:07.979Z,30.20
2019-03-28T01:10:39.769Z,28.30
2019-03-28T01:13:11.581Z,34.30
2019-03-28T01:15:43.385Z,36.17
2019-03-28T01:18:15.246Z,38.07
2019-03-28T01:20:47.127Z,34.77
2019-03-28T01:23:18.992Z,28.90
2019-03-28T01:25:51.109Z,39.63
2019-03-28T01:28:23.961Z,33.80
2019-03-28T01:30:55.954Z,33.63
2019-03-28T01:33:27.751Z,28.67
2019-03-28T01:35:59.557Z,40.37
2019-03-28T01:38:31.348Z,30.63
2019-03-28T01:41:03.254Z,34.57
2019-03-28T01:43:35.205Z,32.10
2019-03-28T01:46:08.190Z,31.40
2019-03-28T01:48:40.185Z,33.90
2019-03-28T01:51:12.336Z,33.27
2019-03-28T01:53:44.306Z,27.60
2019-03-28T01:56:16.174Z,36.57
2019-03-28T01:58:48.122Z,36.00
2019-03-28T02:01:19.918Z,41.73
2019-03-28T02:03:51.961Z,29.03
2019-03-28T02:06:24.921Z,37.27
2019-03-28T02:08:56.895Z,35.07
2019-03-28T02:11:28.889Z,38.77
2019-03-28T02:14:00.704Z,32.67
2019-03-28T02:16:32.731Z,34.77
2019-03-28T02:19:05.779Z,32.43
2019-03-28T02:21:38.143Z,31.10
2019-03-28T02:24:09.981Z,38.03
2019-03-28T02:26:41.839Z,37.80
2019-03-28T02:29:13.731Z,34.30
2019-03-28T02:31:45.547Z,31.80
2019-03-28T02:34:17.345Z,36.93
2019-03-28T02:36:49.167Z,29.90
2019-03-28T02:39:21.028Z,29.07
2019-03-28T02:41:53.012Z,34.90
2019-03-28T02:44:24.958Z,36.20
2019-03-28T02:46:56.953Z,33.27
2019-03-28T02:49:28.716Z,30.40
2019-03-28T02:52:00.677Z,33.80
2019-03-28T02:54:32.485Z,38.80
2019-03-28T02:57:04.524Z,45.10
2019-03-28T02:59:36.332Z,36.90
2019-03-28T03:02:08.249Z,37.60
2019-03-28T03:04:40.215Z,38.63
2019-03-28T03:07:12.105Z,31.73
2019-03-28T03:09:43.882Z,27.77
2019-03-28T03:12:15.764Z,40.10
2019-03-28T03:14:47.587Z,32.60
2019-03-28T03:17:19.467Z,39.87
2019-03-28T03:19:51.874Z,37.43
2019-03-28T03:22:23.695Z,32.80
2019-03-28T03:24:55.627Z,37.30
2019-03-28T03:27:27.542Z,31.77
2019-03-28T03:29:59.518Z,38.83
2019-03-28T03:32:31.495Z,37.20
2019-03-28T03:35:03.384Z,34.70
2019-03-28T03:37:35.352Z,37.17
2019-03-28T03:40:08.865Z,35.03
2019-03-28T03:42:40.651Z,33.27
2019-03-28T03:45:12.799Z,32.10
2019-03-28T03:47:45.763Z,30.90
2019-03-28T03:50:28.432Z,34.20
2019-03-28T03:53:00.331Z,36.20
2019-03-28T03:55:32.237Z,34.47
2019-03-28T03:58:15.574Z,38.27
2019-03-28T04:00:39.181Z,39.97
2019-03-28T04:03:11.139Z,39.60
2019-03-28T04:05:43.086Z,37.53
2019-03-28T04:08:14.965Z,50.60
2019-03-28T04:10:46.829Z,36.40
2019-03-28T04:13:18.951Z,46.40
2019-03-28T04:15:51.016Z,44.63
2019-03-28T04:18:22.900Z,47.63
2019-03-28T04:20:54.701Z,41.33
2019-03-28T04:23:26.613Z,37.20
2019-03-28T04:25:58.417Z,37.60
2019-03-28T04:28:32.030Z,40.20
2019-03-28T04:31:03.864Z,43.87
2019-03-28T04:33:35.840Z,38.93
2019-03-28T04:36:07.917Z,42.63
2019-03-28T04:38:39.718Z,38.30
2019-03-28T04:41:11.579Z,45.00
2019-03-28T04:43:43.456Z,42.33
2019-03-28T04:46:16.214Z,32.53
2019-03-28T04:48:50.660Z,34.93
2019-03-28T04:51:21.792Z,32.97
2019-03-28T04:53:56.314Z,35.87
2019-03-28T04:56:27.512Z,37.07
2019-03-28T04:58:59.494Z,32.50
2019-03-28T05:01:31.347Z,37.77
2019-03-28T05:04:03.225Z,41.83
2019-03-28T05:06:37.872Z,37.03
2019-03-28T05:09:08.990Z,46.50
2019-03-28T05:11:40.867Z,36.93
2019-03-28T05:14:12.713Z,41.10
2019-03-28T05:16:44.537Z,40.43
2019-03-28T05:19:16.330Z,44.63
2019-03-28T05:21:48.381Z,46.50
2019-03-28T05:24:20.320Z,49.37
2019-03-28T05:26:52.573Z,43.03
2019-03-28T05:29:24.537Z,45.97
2019-03-28T05:31:56.619Z,46.47
2019-03-28T05:34:28.541Z,45.33
2019-03-28T05:37:00.439Z,43.80
2019-03-28T05:39:32.261Z,46.83
2019-03-28T05:42:04.347Z,53.60
2019-03-28T05:44:36.247Z,41.30
2019-03-28T05:47:08.188Z,44.40
2019-03-28T05:49:39.959Z,44.00
2019-03-28T05:52:11.919Z,47.77
2019-03-28T05:54:43.716Z,42.67
2019-03-28T05:57:15.579Z,38.60
2019-03-28T05:59:47.387Z,45.33
2019-03-28T06:02:19.287Z,39.37
2019-03-28T06:04:51.108Z,49.33
2019-03-28T06:07:22.891Z,45.67
2019-03-28T06:09:54.764Z,43.37
2019-03-28T06:12:26.644Z,52.80
2019-03-28T06:14:58.531Z,45.87
2019-03-28T06:17:30.411Z,43.77
2019-03-28T06:20:02.311Z,44.20
2019-03-28T06:22:34.281Z,44.47
2019-03-28T06:25:06.611Z,45.63
2019-03-28T06:27:38.467Z,48.63
2019-03-28T06:30:12.958Z,46.90
2019-03-28T06:32:44.763Z,49.83
2019-03-28T06:35:16.735Z,46.83
2019-03-28T06:37:51.307Z,43.57
2019-03-28T06:40:22.300Z,41.67
2019-03-28T06:42:54.239Z,50.90
2019-03-28T06:45:26.247Z,42.90
2019-03-28T06:47:58.038Z,43.20
2019-03-28T06:50:29.831Z,43.23
2019-03-28T06:53:01.931Z,50.50
2019-03-28T06:55:36.874Z,50.10
2019-03-28T06:58:08.690Z,48.27
2019-03-28T07:00:40.486Z,39.90
2019-03-28T07:03:12.923Z,49.10
2019-03-28T07:05:44.871Z,46.37
2019-03-28T07:08:16.851Z,42.50
2019-03-28T07:10:48.938Z,44.77
2019-03-28T07:13:20.811Z,42.67
2019-03-28T07:15:52.801Z,40.93
2019-03-28T07:18:24.825Z,43.93
2019-03-28T07:20:56.936Z,42.30
2019-03-28T07:23:29.066Z,41.20
2019-03-28T07:26:00.906Z,41.73
2019-03-28T07:28:33.551Z,52.67
2019-03-28T07:31:05.897Z,49.27
2019-03-28T07:33:37.835Z,53.50
2019-03-28T07:36:09.810Z,47.43
2019-03-28T07:38:41.718Z,56.03
2019-03-28T07:41:16.367Z,44.53
2019-03-28T07:43:47.206Z,161.50
2019-03-28T07:46:20.261Z,90.37
2019-03-28T07:48:52.245Z,47.60
2019-03-28T07:51:24.065Z,50.20
2019-03-28T07:53:55.840Z,46.30
2019-03-28T07:56:27.667Z,54.43
2019-03-28T07:58:59.533Z,46.43
2019-03-28T08:01:31.422Z,40.70
2019-03-28T08:04:03.229Z,40.17
2019-03-28T08:06:48.781Z,41.37
2019-03-28T08:09:11.212Z,38.23
2019-03-28T08:11:43.189Z,36.90
2019-03-28T08:14:15.171Z,36.03
2019-03-28T08:16:47.080Z,30.33
2019-03-28T08:19:18.988Z,31.60
2019-03-28T08:21:51.040Z,31.73
2019-03-28T08:24:23.260Z,30.40
2019-03-28T08:26:55.075Z,31.17
2019-03-28T08:29:26.848Z,28.10
2019-03-28T08:31:59.579Z,29.03
2019-03-28T08:34:31.527Z,29.83
2019-03-28T08:37:03.973Z,29.90
2019-03-28T08:39:35.996Z,34.33
2019-03-28T08:42:07.982Z,29.43
2019-03-28T08:44:39.927Z,46.80
2019-03-28T08:47:11.968Z,28.70
2019-03-28T08:49:44.058Z,27.90
2019-03-28T08:52:15.912Z,30.73
2019-03-28T08:54:47.817Z,27.30
2019-03-28T08:57:19.687Z,26.70
2019-03-28T08:59:51.509Z,23.10
2019-03-28T09:02:23.369Z,25.53
2019-03-28T09:04:56.441Z,29.90
2019-03-28T09:07:28.405Z,40.50
2019-03-28T09:10:00.369Z,30.13
2019-03-28T09:12:35.142Z,33.40
2019-03-28T09:17:56.078Z,27.53
2019-03-28T09:20:28.292Z,22.37
2019-03-28T09:23:00.190Z,19.90
2019-03-28T09:25:32.026Z,18.50
2019-03-28T09:28:03.911Z,17.63
2019-03-28T09:30:49.742Z,21.80
2019-03-28T09:33:19.266Z,20.93
2019-03-28T09:35:51.497Z,31.10
2019-03-28T09:38:23.881Z,25.67
2019-03-28T09:40:55.927Z,32.93
2019-03-28T09:43:27.895Z,21.67
2019-03-28T09:46:00.573Z,22.67
2019-03-28T09:48:33.288Z,21.10
2019-03-28T09:51:05.276Z,22.83
2019-03-28T09:53:37.175Z,18.80
2019-03-28T09:56:09.051Z,19.10
2019-03-28T09:58:41.018Z,21.23
2019-03-28T10:01:13.213Z,20.10
2019-03-28T10:03:45.047Z,19.20
2019-03-28T10:06:16.878Z,21.83
2019-03-28T10:08:48.814Z,39.33
2019-03-28T10:11:20.684Z,44.20
2019-03-28T10:13:53.625Z,21.40
2019-03-28T10:16:25.589Z,19.80
2019-03-28T10:18:57.388Z,22.33
2019-03-28T10:21:29.285Z,27.40
2019-03-28T10:24:01.116Z,13.40
2019-03-28T10:26:33.036Z,22.50
2019-03-28T10:29:05.215Z,27.43
2019-03-28T10:31:37.163Z,16.80
2019-03-28T10:34:09.141Z,16.10
2019-03-28T10:36:41.186Z,21.63
2019-03-28T10:39:13.046Z,16.23
2019-03-28T10:41:45.141Z,15.40
2019-03-28T10:44:16.967Z,11.50
2019-03-28T10:46:48.867Z,25.37
2019-03-28T10:49:20.823Z,21.43
2019-03-28T10:51:52.975Z,16.77
2019-03-28T10:54:25.894Z,11.50
2019-03-28T10:56:58.177Z,17.60
2019-03-28T10:59:30.306Z,22.43
2019-03-28T11:02:02.188Z,14.70
2019-03-28T11:04:34.104Z,13.37
2019-03-28T11:07:06.153Z,13.73
2019-03-28T11:09:39.140Z,10.83
2019-03-28T11:12:11.081Z,14.67
2019-03-28T11:14:46.127Z,13.50
2019-03-28T11:17:16.543Z,13.87
2019-03-28T11:19:48.394Z,9.67
2019-03-28T11:22:20.407Z,11.33
2019-03-28T11:24:52.569Z,12.63
2019-03-28T11:27:24.558Z,8.67
2019-03-28T11:29:56.588Z,11.07
2019-03-28T11:32:28.494Z,12.07
2019-03-28T11:35:00.423Z,7.30
2019-03-28T11:37:32.322Z,8.40
2019-03-28T11:40:05.214Z,10.87
2019-03-28T11:42:37.096Z,10.27
2019-03-28T11:45:10.028Z,7.10
2019-03-28T11:47:42.285Z,8.47
2019-03-28T11:50:17.089Z,11.17
2019-03-28T11:52:48.476Z,10.90
2019-03-28T11:55:20.337Z,9.33
2019-03-28T11:57:52.273Z,9.53
2019-03-28T12:00:24.256Z,25.93
2019-03-28T12:02:56.247Z,19.10
2019-03-28T12:05:28.107Z,13.07
2019-03-28T12:07:59.934Z,10.13
2019-03-28T12:10:31.949Z,12.87
2019-03-28T12:13:03.926Z,10.27
2019-03-28T12:15:35.843Z,11.50
2019-03-28T12:18:07.839Z,20.47
2019-03-28T12:20:39.861Z,16.70
2019-03-28T12:23:11.720Z,13.47
2019-03-28T12:25:43.706Z,8.40
2019-03-28T12:28:17.545Z,10.13
2019-03-28T12:30:49.638Z,6.67
2019-03-28T12:33:21.644Z,11.03
2019-03-28T12:35:53.664Z,8.67
2019-03-28T12:38:25.603Z,13.37
2019-03-28T12:40:57.522Z,15.20
2019-03-28T12:43:29.468Z,16.03
2019-03-28T12:46:01.373Z,43.00
2019-03-28T12:48:33.221Z,19.00
2019-03-28T12:51:05.247Z,16.13
2019-03-28T12:53:37.407Z,19.13
2019-03-28T12:56:09.284Z,25.50
2019-03-28T12:58:41.304Z,24.83
2019-03-28T13:01:13.339Z,18.10
2019-03-28T13:03:46.439Z,21.60
2019-03-28T13:06:18.524Z,18.97
2019-03-28T13:08:50.425Z,20.00
2019-03-28T13:11:22.273Z,21.03
2019-03-28T13:13:55.413Z,21.43
2019-03-28T13:16:27.265Z,15.33
2019-03-28T13:18:59.126Z,19.73
2019-03-28T13:21:31.053Z,28.97
2019-03-28T13:24:03.078Z,21.60
2019-03-28T13:26:35.019Z,19.27
2019-03-28T13:29:07.199Z,27.10
2019-03-28T13:31:39.099Z,22.27
2019-03-28T13:34:11.106Z,53.47
2019-03-28T13:36:43.031Z,16.80
2019-03-28T13:39:14.899Z,19.80
2019-03-28T13:41:46.749Z,17.23
2019-03-28T13:44:18.581Z,19.63
2019-03-28T13:46:50.605Z,16.43
2019-03-28T13:49:22.712Z,18.97
2019-03-28T13:51:54.767Z,17.73
2019-03-28T13:54:26.724Z,18.57
2019-03-28T13:56:58.580Z,18.60
2019-03-28T13:59:31.103Z,18.93
2019-03-28T14:02:06.713Z,18.10
2019-03-28T14:04:37.716Z,19.40
2019-03-28T14:07:09.615Z,21.00
2019-03-28T14:09:42.536Z,19.17
2019-03-28T14:12:14.549Z,29.70
2019-03-28T14:14:46.438Z,22.40
2019-03-28T14:17:18.265Z,23.83
2019-03-28T14:19:50.304Z,25.37
2019-03-28T14:22:22.224Z,21.33
2019-03-28T14:24:54.156Z,19.13
2019-03-28T14:27:26.086Z,21.80
2019-03-28T14:29:58.156Z,23.17
2019-03-28T14:32:32.963Z,21.93
2019-03-28T14:35:03.682Z,18.90
2019-03-28T14:37:35.588Z,41.83
2019-03-28T14:40:08.868Z,23.97
2019-03-28T14:42:41.261Z,18.07
2019-03-28T14:45:13.991Z,24.90
2019-03-28T14:47:46.177Z,20.37
2019-03-28T14:50:32.870Z,23.67
2019-03-28T14:53:05.155Z,20.63
2019-03-28T14:55:38.327Z,22.47
2019-03-28T14:58:10.433Z,21.13
2019-03-28T15:00:48.289Z,18.10
2019-03-28T15:03:26.256Z,19.77
2019-03-28T15:05:54.219Z,17.90
2019-03-28T15:08:26.145Z,18.13
2019-03-28T15:10:58.189Z,18.00
2019-03-28T15:13:30.090Z,20.77
2019-03-28T15:16:02.227Z,17.13
2019-03-28T15:18:34.251Z,18.10
2019-03-28T15:21:06.320Z,17.73
2019-03-28T15:23:38.453Z,21.53
2019-03-28T15:26:10.296Z,14.53
2019-03-28T15:28:42.331Z,14.57
2019-03-28T15:31:14.350Z,13.80
2019-03-28T15:33:46.212Z,14.60
2019-03-28T15:36:18.169Z,14.23
2019-03-28T15:38:50.082Z,21.67
2019-03-28T15:41:23.371Z,16.23
2019-03-28T15:43:55.278Z,18.87
2019-03-28T15:46:27.550Z,13.60
2019-03-28T15:48:59.391Z,13.50
2019-03-28T15:51:31.438Z,12.60
2019-03-28T15:54:03.484Z,11.83
2019-03-28T15:56:35.508Z,12.33
2019-03-28T15:59:08.451Z,11.37
2019-03-28T16:01:40.521Z,10.90
2019-03-28T16:04:13.648Z,12.83
2019-03-28T16:06:45.627Z,13.30
2019-03-28T16:09:18.785Z,13.83
2019-03-28T16:12:02.064Z,14.63
2019-03-28T16:14:24.603Z,11.47
2019-03-28T16:16:56.797Z,13.53
2019-03-28T16:19:28.816Z,12.20
2019-03-28T16:22:03.934Z,11.73
2019-03-28T16:24:34.371Z,16.83
2019-03-28T16:27:06.495Z,10.50
2019-03-28T16:29:38.484Z,8.33
2019-03-28T16:32:10.401Z,13.43
2019-03-28T16:34:43.572Z,17.63
2019-03-28T16:37:15.616Z,14.20
2019-03-28T16:39:49.901Z,35.67
2019-03-28T16:42:21.183Z,11.60
2019-03-28T16:44:53.245Z,10.80
2019-03-28T16:47:25.329Z,12.50
2019-03-28T16:49:58.413Z,8.70
2019-03-28T16:52:30.258Z,9.80
2019-03-28T16:55:02.177Z,21.90
2019-03-28T16:57:35.344Z,23.07
2019-03-28T17:00:11.375Z,12.00
2019-03-28T17:02:43.972Z,10.00
2019-03-28T17:05:16.159Z,20.20
2019-03-28T17:07:48.653Z,10.87
2019-03-28T17:10:47.039Z,11.70
2019-03-28T17:13:20.485Z,11.67
2019-03-28T17:15:52.486Z,11.87
2019-03-28T17:18:25.278Z,11.87
2019-03-28T17:20:57.289Z,53.57
2019-03-28T17:23:29.385Z,28.83
2019-03-28T17:26:01.395Z,63.90
2019-03-28T17:28:33.539Z,17.53
2019-03-28T17:31:05.559Z,32.83
2019-03-28T17:33:37.670Z,43.80
2019-03-28T17:36:09.705Z,53.10
2019-03-28T17:38:41.623Z,22.53
2019-03-28T17:41:13.638Z,16.73
2019-03-28T17:43:45.490Z,26.97
2019-03-28T17:46:18.373Z,24.13
2019-03-28T17:48:50.645Z,27.83
2019-03-28T17:51:22.833Z,23.17
2019-03-28T17:53:56.287Z,26.53
2019-03-28T17:56:28.294Z,50.20
2019-03-28T17:59:00.117Z,32.60
2019-03-28T18:01:31.994Z,28.00
2019-03-28T18:04:03.906Z,24.33
2019-03-28T18:06:36.041Z,21.80
2019-03-28T18:09:09.644Z,23.87
2019-03-28T18:11:41.770Z,20.07
2019-03-28T18:14:13.723Z,16.30
2019-03-28T18:16:45.681Z,18.00
2019-03-28T18:19:17.614Z,18.90
2019-03-28T18:22:02.398Z,14.00
2019-03-28T18:24:23.523Z,14.47
2019-03-28T18:26:55.377Z,16.90
2019-03-28T18:29:27.693Z,16.03
2019-03-28T18:32:00.025Z,24.17
2019-03-28T18:34:32.922Z,18.40
2019-03-28T18:37:04.805Z,12.17
2019-03-28T18:39:36.693Z,20.37
2019-03-28T18:42:08.631Z,9.90
2019-03-28T18:44:41.676Z,12.67
2019-03-28T18:47:13.747Z,11.43
2019-03-28T18:49:45.724Z,11.40
2019-03-28T18:52:17.579Z,8.53
2019-03-28T18:54:49.470Z,8.37
2019-03-28T18:57:21.491Z,10.57
2019-03-28T18:59:53.575Z,8.53
2019-03-28T19:02:25.409Z,8.80
2019-03-28T19:04:57.338Z,6.87
2019-03-28T19:07:29.247Z,10.20
2019-03-28T19:10:01.086Z,8.60
2019-03-28T19:12:33.123Z,12.70
2019-03-28T19:15:06.288Z,6.50
2019-03-28T19:17:38.547Z,9.20
2019-03-28T19:20:12.114Z,7.23
2019-03-28T19:22:44.178Z,12.10
2019-03-28T19:25:18.315Z,6.97
2019-03-28T19:27:50.354Z,6.93
2019-03-28T19:30:32.925Z,6.90
2019-03-28T19:33:07.001Z,6.97
2019-03-28T19:35:40.790Z,10.07
2019-03-28T19:38:13.157Z,9.83
2019-03-28T19:40:45.245Z,6.80
2019-03-28T19:43:20.754Z,10.80
2019-03-28T19:45:50.721Z,11.70
2019-03-28T19:48:22.828Z,7.77
2019-03-28T19:50:55.733Z,7.00
2019-03-28T19:53:27.633Z,9.13
2019-03-28T19:55:59.696Z,9.10
2019-03-28T19:58:34.872Z,14.43
2019-03-28T20:01:06.146Z,8.40
2019-03-28T20:03:38.027Z,9.00
2019-03-28T20:06:21.628Z,9.60
2019-03-28T20:08:47.002Z,6.80
2019-03-28T20:11:18.946Z,9.93
2019-03-28T20:13:52.055Z,6.87
2019-03-28T20:16:24.038Z,11.27
2019-03-28T20:18:56.616Z,10.43
2019-03-28T20:21:28.541Z,10.20
2019-03-28T20:24:00.392Z,10.63
2019-03-28T20:26:32.234Z,7.00
2019-03-28T20:29:04.412Z,6.73
2019-03-28T20:31:36.427Z,12.10
2019-03-28T20:34:08.704Z,7.57
2019-03-28T20:36:43.837Z,8.87
2019-03-28T20:39:14.600Z,7.83
2019-03-28T20:41:46.516Z,12.33
2019-03-28T20:44:18.974Z,8.70
2019-03-28T20:46:51.133Z,10.30
2019-03-28T20:49:23.268Z,9.50
2019-03-28T20:51:55.346Z,8.60
2019-03-28T20:54:27.220Z,7.73
2019-03-28T20:56:59.274Z,9.50
2019-03-28T20:59:31.501Z,7.63
2019-03-28T21:02:05.865Z,7.17
2019-03-28T21:04:39.328Z,7.73
2019-03-28T21:07:11.513Z,13.00
2019-03-28T21:09:43.704Z,8.10
2019-03-28T21:12:15.801Z,9.40
2019-03-28T21:14:48.097Z,8.30
2019-03-28T21:17:20.135Z,7.33
2019-03-28T21:19:52.023Z,9.50
2019-03-28T21:22:24.118Z,8.43
2019-03-28T21:24:56.204Z,10.87
2019-03-28T21:27:28.827Z,9.70
2019-03-28T21:30:00.796Z,8.37
2019-03-28T21:32:32.706Z,7.80
2019-03-28T21:35:04.893Z,8.27
2019-03-28T21:37:36.711Z,8.33
2019-03-28T21:40:09.315Z,9.73
2019-03-28T21:42:41.314Z,11.20
2019-03-28T21:45:14.948Z,12.40
2019-03-28T21:47:47.163Z,9.97
2019-03-28T21:50:19.126Z,9.17
2019-03-28T21:52:51.041Z,9.40
2019-03-28T21:55:23.092Z,9.77
2019-03-28T21:57:55.158Z,9.33
2019-03-28T22:00:27.129Z,12.17
2019-03-28T22:02:59.065Z,11.20
2019-03-28T22:05:31.091Z,9.37
2019-03-28T22:08:03.131Z,10.80
2019-03-28T22:10:35.169Z,10.07
2019-03-28T22:13:07.445Z,10.87
2019-03-28T22:15:40.242Z,21.13
2019-03-28T22:18:12.280Z,11.77
2019-03-28T22:20:44.369Z,11.17
2019-03-28T22:23:16.434Z,10.20
2019-03-28T22:25:48.475Z,16.50
2019-03-28T22:28:20.349Z,10.93
2019-03-28T22:30:52.334Z,11.93
2019-03-28T22:33:24.169Z,11.50
2019-03-28T22:35:56.043Z,12.80
2019-03-28T22:38:28.005Z,9.93
2019-03-28T22:41:00.007Z,11.27
2019-03-28T22:43:32.964Z,14.10
2019-03-28T22:46:05.145Z,12.93
2019-03-28T22:48:37.093Z,11.03
2019-03-28T22:51:09.104Z,16.77
2019-03-28T22:53:42.668Z,17.00
2019-03-28T22:56:14.629Z,14.43
2019-03-28T22:58:46.631Z,11.73
2019-03-28T23:01:18.713Z,16.30
2019-03-28T23:03:52.344Z,14.53
2019-03-28T23:06:24.292Z,17.00
2019-03-28T23:08:56.136Z,12.57
2019-03-28T23:11:28.216Z,11.07
2019-03-28T23:14:00.207Z,10.53
2019-03-28T23:16:32.058Z,11.50
2019-03-28T23:19:04.315Z,12.20
2019-03-28T23:21:36.135Z,12.37
2019-03-28T23:24:08.068Z,18.33
2019-03-28T23:26:39.979Z,13.50
2019-03-28T23:29:11.932Z,13.37
2019-03-28T23:31:44.130Z,13.10
2019-03-28T23:34:16.119Z,14.50
2019-03-28T23:36:47.992Z,22.10
2019-03-28T23:39:21.037Z,14.90
2019-03-28T23:41:52.929Z,11.43
2019-03-28T23:44:24.859Z,12.63
2019-03-28T23:46:56.950Z,14.73
2019-03-28T23:49:28.953Z,15.40
2019-03-28T23:52:02.067Z,12.70
2019-03-28T23:54:34.064Z,15.07
2019-03-28T23:57:05.984Z,21.83
2019-03-28T23:59:37.968Z,20.43
